Race Results for
Bicycles Plus Winter Criterium
Folsom, CA
(Event Information)
View By:
Criterium on 02/09/2013

Note: Ranking points are NOT upgrade points. An explanation of ranking points can be found here.


Men - Cat3/4 - Master - 35-99

 Place Points NameCity, StateTime USAC #BibTeam
1128.31 Eric ZEIGLER   Auburn, CA00:00.0 60207  269 Victory Velo Racing
2133.02 Karl WURZBACH   Fairfield, CA00:00.0 260329  268 Davis Bike Club
3137.73 Aaron PATTERSON   San Jose, CA00:00.0 334718  249 Leopard-Sapporo Team
4142.44 Erik CAMACHO   San Jose, CA00:00.0 303224  209 Leopard-Sapporo
5147.15 Christopher ELBO   Oakland, CA00:00.0 287728  217 SquadraSF
6151.86 Jason ARINNO   Elk Grove, CA00:00.0 260928  203 Kinetic Cycles
7156.57 R Todd MARSHALL   Sacramento, CA00:00.0 43936  239 Davis Bike Club Race Team
8161.28 Greg CHAPLA   Davis, CA00:00.0 282712  210 Davis Bike Club Race Team
9165.99 Rann VALDEZ   Pleasant Hill, CA00:00.0 142965  265 Leopard/Sapporo Racing
10170.70 Ben COTA   San Jose, CA00:00.0 7881  213 Leopard-Sapporo Team
11175.41 John KRETSCHMANN (1 - Cat4)   Folsom, CA00:00.0 54278  236 Body Concepts
12180.12 Alvaro MOSQUERA   Sacramento, CA00:00.0 236809  276 Team Bicycles Plus/Sierra Neva
13184.83 John LENOACH   Lafayette, CA00:00.0 335218  237 Cushman & Wakefield
14189.54 Chris KEMP   West Sacramento, CA00:00.0 18867  234 Team City Sacramento
15194.25 Hussein SAFFOURI   Piedmont, CA00:00.0 41848  257 Berkeley Bicycle Club (BBC)
16198.96 Rich MADER   Sacramento, CA00:00.0 222996  238 Folsom Bike/VW/Raley's
17203.67 John COLLINS   Folsom, CA00:00.0 231774  211 Folsom Bike/VW/Raley's
18208.38 Barton Andrew   Rocklin, CA00:00.0 357549  204 Victory Velo Racing
19213.09 Ryan ODELL   Sacramento, CA00:00.0 288200  244 Davis Bike Club Race Team
20217.80 Ronald JOHNSON   Sacramento, CA00:00.0 41718  231 Rio Strada
21222.51 Mark FIORI   Folsom, CA00:00.0 112253  220 Folsom Bike/VW/Raley's
22227.22 Jason NEARN   Fresno , CA00:00.0 367019  243 SBRacing
23231.93 Phil Schmidt (2 - Cat4)   Orangevale, CA00:00.0 334806  273 -------
24236.64 Damian GONZALEZ   Stockton, CA00:00.0 178252  280 Michael David Winery Cycling T
25241.35 Justin Madison (3 - Cat4)   Vacaville, CA 304658  271 
26246.06 Kevin Davidson (4 - Cat4)   Danville, CA00:00.0 335464  214 Cushman
27250.77 Mark ROBERTSON   Oakland, CA00:00.0 237380  255 Cushman & Wakefield Racing
28255.48 Brian ACORD   Sacramento, CA00:00.0 334602  200 Folsom Bike/VW/Raley's
28255.48 Robert GOSS   Folsom, CA00:00.0 289041  223 Team Bicycles Plus/Sierra Neva
29260.19 Brian ACORD   Sacramento, CA00:00.0 334602  200 Folsom Bike/VW/Raley's
29260.19 James BLANKENSHIP   Rescue, CA00:00.0 53651  279 Victory Velo Racing
30264.90 James HERZMAN   Truckee, CA00:00.0 207922  228 Hub Coffee Roasters p/b Tahoe
31269.61 Dave Garcia   Dublin, CA00:00.0 161627  272 Team Bicycles Plus/Sierra Neva
32274.32 Jerry SNOW (5 - Cat4)   Sacramento, CA00:00.0 207749  262 Sacramento Golden Wheelmen
33279.03 Philip BLAY (6 - Cat4)   Folsom, CA00:00.0 274756  206 Folsom Bike/VW/Raley's
34283.74 Sean PERKINS (7 - Cat4)   El Dorado Hills, CA00:00.0 252869  251 Folsom Bike/VW/Raley's
35288.45 David ALMQUIST (8 - Cat4)   Roseville, CA00:00.0 365531  201 Team City Sacramento
36293.16 Rich HUFFORD (9 - Cat4)   Granite Bay, CA00:00.0 365212  230 Victory Velo Racing
37297.87 Jeff FARLEY (10 - Cat4)   Rancho Cordova, CA00:00.0 339050  219 Folsom Bike/VW/Raley's
38302.58 Jeffrey WEAVER   Sacramento, CA00:00.0 290926  267 Davis Bike Club Race Team
39307.29 Ryosei KANEKO   Rough And Ready, CA00:00.0 356162  232 SHO-AIR Racing team
40312.00 Steve OFFERMAN   Sacramento, CA00:00.0 81992  246 Team Bicycles Plus/Sierra Neva
41316.71 Adam ANDELIN (11 - Cat4)   Elk Grove, CA00:00.0 128711  202 Team Bicycles Plus/Sierra Neva
42321.42 Mike MUNOZ (12 - Cat4)   Cameronpark, CA00:00.0 307140  242 Folsom Bike/VW/Raley's
43326.13 Chad RICHARDS (13 - Cat4)   Antelope, CA00:00.0 305850  254 Team Bicycles Plus/Sierra Neva
44330.84 Greg FALES (14 - Cat4)   Orangevale, CA00:00.0 275788  218 Team Bicycles Plus/Sierra Neva
45335.55 Randy FLOYD (15 - Cat4)   Newcastle, CA00:00.0 90079  222 Body Concepts
46340.26 Markham CONNOLLY   Berkeley, CA00:00.0 208359  212 Touchstone Climbing
47344.97 Bill VAUGHAN (16 - Cat4)   Auburn, CA00:00.0 283140  266 Victory Velo Racing
48349.68 Clinton HAMILTON (17 - Cat4)   Auburn, CA00:00.0 333284  225 Victory Velo Racing
49354.39 Marc TRUCANO (18 - Cat4)   Vacaville, CA00:00.0 332694  264 Team Precision Fuji Oval
50359.10 Frank SHOEMAKER (19 - Cat4)   Folsom, CA00:00.0 32519  260 leadoutracing.com
51363.81 Nabil SAMAAN   Fair Oaks, CA00:00.0 177518  258 Sustainable Cycling
52368.52 Ron STOFAN (20 - Cat4)   Folsom00:00.0 368443  263 Team Bicycles Plus/Sierra Neva
53373.23 Daniel POLLARD (21 - Cat4)   Roseville, CA00:00.0 269166  253 Team Mad Cat
54377.94 Jason KIMBALL (22 - Cat4)   Charlotte , NC00:00.0 340764  235 Team Roger C Peace
55382.65 Scott DAVIS (23 - Cat4)   Palo Alto, CA00:00.0 257793  215 QuadCycles
56387.36 Matt LUCKENBACH (24 - Cat4)   El Dorado Hills, CA00:00.0 123967  283 Team Revolutions
57392.07 Renzo BERNALES (25 - Cat4)   Sacramento, CA00:00.0 76203  205 Team City
58396.78 Justin MORGAN   Fresno, CA00:00.0 238135  281 Stevens Bicycle Racing
59401.49 Andrew HEINEMANN   Soledad, CA00:00.0 356964  227 Don Chapin Monterey Bay Racing
60406.20 Darron STURGEON   Reno, NV00:00.0 286787  278 Taleo Racing
61410.91 Darren ROJO (26 - Cat4)   Folsom, CA00:00.0 366161  256 Team Bicycles Plus/Sierra Neva
62415.62 Sean ODOM (27 - Cat4)   Carmichael, CA00:00.0 223061  245 EAST SAC BIKES
62415.62 Sean ODOM (28 - Cat4)   Carmichael, CA00:00.0 223061  245 EAST SAC BIKES
63420.33 Justin HALL   El Dorado Hills, CA00:00.0 81780  224 Team Bicycles Plus/Sierra Neva
64425.04 Andreas SCHULTEN   Cameron Park, CA00:00.0 248096  259 Stuzio
65429.75 Gregg Lehman (29 - Cat4)   Vacaville, CA00:00.0 250959  270 Team Precision Fuji-Oval Racing
66434.46 Jeff Mitchell   Folsom, CA00:00.0 101551  274 Team Bicycles Plus/Sierra Neva
67439.17 Craig DOLLEY   El Dorado Hills, CA00:00.0 158073  216 Team Bicycles Plus/Sierra Neva
68443.88 Jess Raphael   Napa, CA00:00.0 221460  275 Folsom Bike/VW/Raley's
69448.59 Robin MCKINNEY (30 - Cat4)   Lincoln, CA00:00.0 276168  240 Victory Velo Racing
70453.30 Bob DELP   Folsom, CA00:00.0 9138  284 Folsom Bike/Mercedes Benz
71458.01 Paul HIGLEY (31 - Cat4)   Redding, CA00:00.0 324504  229 Folsom Bike/VW/Raley's
72462.72 George MEILAHN   Antioch, CA00:00.0 166581  241 Pedali Alpini
73467.43 Patrick PETERS (32 - Cat4)   Davis, CA00:00.0 303960  252 
75476.85 Mckay FLORENCE (33 - Cat4)   Loomis, CA00:00.0 304916  221 VICTORY VELO RACING
76481.56 Mark SNEED (34 - Cat4)   Oakland, CA00:00.0 290626  261 Major Motion Cycling Team
DNP Tony BOODY (Cat4)   El Dorado Hills, CA00:00.0 326730  207 Team Revolutions
DNP Brian PANTIGA (Cat4)   Folsom, CA00:00.0 61633  248 Bicycle Planet
DNP Kevin HARRIS (Cat4)   El Dorado Hills, CA00:00.0 365218  226 Folsom Bike/VW/Raley's
DNP Chris PAYNE   Reno, NV00:00.0 27493  250 Hub Coffee Roasters p/b Tahoe
DNP Kevin KEADY (Cat4)   Folsom, CA00:00.0 330800  233 Folsom Bike/VW/Raley's
DNP Gordon OLSON   Reno, NV00:00.0 105151  247 Hub Coffee Roasters p/b TCR
DNP Trevor CADOGAN (Cat4)   Roseville, CA00:00.0 284507  208 Rio Strada Racing

Men - Cat1/2/3 - Master - 35-99

 Place Points NameCity, StateTime USAC #BibTeam
199.02 Jan WEISSENBERGER   San Francisco, CA00:00.0 186678  645 Team Bicycles Plus/ZIPZ
2101.58 Michael SAYERS   Fair Oaks, CA00:00.0 54591  639 Specialized masters
3104.14 Michael OROURKE (1 - Cat2)   Auburn, CA00:00.0 204496  630 SAFEWAY/PureRED/Bicycles Plus
4106.70 Brian CHOI (2 - Cat2)   Folsom, CA00:00.0 52849  608 Stuzio.com
5109.26 Scott McKinley   Mill Valley, CA00:00.0 46815  677 
6111.82 Rodney SPRADLIN (3 - Cat2)   El Dorado Hills, CA00:00.0 122266  656 Team Bicycles Plus/Sierra Neva
7114.38 Jason GREFRATH (4 - Cat2)   Sacramento, CA00:00.0 281883  616 LangeTwins Winery Racing Team
8116.94 Andre TENTHOREY (5 - Cat2)   Granite Bay, CA00:00.0 76561  650 Sacramento Golden Wheelmen
9119.50 Jeromy COTTELL (6 - Cat2)   Redwood City, CA00:00.0 273912  610 Team Specialized Racing Master
10122.06 Jeffrey GALLAND (7 - Cat2)   Paradise, CA00:00.0 127804  614 Team Bicycles Plus/ZIPZ
11124.62 Ronnie LEAVITT (1 - Cat3)   Rocklin, CA00:00.0 319284  623 Victory Velo Racing
12127.18 Joseph STARON (8 - Cat2)   Sacramento, CA00:00.0 132859  666 LangeTwins Winery Racing Team
13129.74 Jason ARINNO (2 - Cat3)   Elk Grove, CA00:00.0 260928  602 Kinetic Cycles
14132.30 Jason Brown (9 - Cat2)   Lodi, CA00:00.0 53115  753 LangeTwins Winery Racing Team
15134.86 Chris ESPY (10 - Cat2)   Sacramento, CA00:00.0 61649  660 Morgan Stanley /Specialized
16137.42 Patrick MCCLURG (11 - Cat2)   Citrus Heights, CA00:00.0 48984  661 Folsom Bike/Mercedes Benz
17139.98 Greg TSUTAOKA (3 - Cat3)   Oakland, CA00:00.0 296665  643 LangeTwins Winery Racing Team
18142.54 Dave KAUSE (12 - Cat2)   Sacramento, CA00:00.0 175157  676 
19145.10 John FRITZ (13 - Cat2)   Stockton, CA00:00.0 76287  651 Michael David Winery Cycling T
20147.66 John ARMER (4 - Cat3)   El Dorado Hills, CA00:00.0 93144  603 Team Bicycles Plus/Sierra Neva
21150.22 Jeff WATSON (14 - Cat2)   Elk Grove, CA00:00.0 293136  664 Team Bicycles Plus/Sierra Neva
22152.78 Carter Schmeck (15 - Cat2)   Auburn, CA00:00.0 31617  646 
23155.34 Neil BARTLEY (16 - Cat2)   San Jose, CA00:00.0 209268  604 Team Bicycles Plus/ZIPZ
24157.90 Ben ALBRACHT (17 - Cat2)   Monterey, CA00:00.0 210637  600 Team Bicycles Plus/ZIPZ
25160.46 Jason SNOVEL (18 - Cat2)   Sacramento, CA00:00.0 268577  640 Folsom Bike/VW/Raley's
26163.02 Steve THOMSEN (19 - Cat2)   Reno, NV00:00.0 245436  658 LangeTwins Winery p/b Great Ba
27165.58 Morgan MAHANKE (5 - Cat3)   El Dorado Hills, CA00:00.0 226577  624 Team Bicycles Plus/Sierra Neva
28168.14 Hussein SAFFOURI (20 - Cat2)   Piedmont, CA00:00.0 41848  636 Berkeley Bicycle Club (BBC)
29170.70 Michael CLAUDIO (21 - Cat2)   West Sacramento, CA00:00.0 248052  609 Davis Bike Club Race Team
30173.26 Rob CADY (22 - Cat2)   Elk Grove, CA00:00.0 49774  674 SacObgyn Cycling Team p/b Davi
31175.82 Scott HERRING (23 - Cat2)   Sausalito, CA00:00.0 236346  618 Team Specialized Racing Master
32178.38 Gus PLATIS (6 - Cat3)   W Sacramento, CA00:00.0 40616  633 Team City Sacramento
33180.94 Robert PASCO   Belmont, CA00:00.0 136970  653 SAFEWAY/GA PRC Group/Bicycles
34183.50 Dennis BAKER (24 - Cat2)   Sacramento, CA00:00.0 255279  662 Sacramento Golden Wheelmen
35186.06 Steve MCCLELLAND (7 - Cat3)   Elk Grove00:00.0 360314  675 Rio Strada Racing
36188.62 Ted TORIBIO (25 - Cat2)   Elk Grove00:00.0 88963  641 Folsom Bike/VW/Raley's
37191.18 Josh BULLOCK (26 - Cat2)   Sacramento, CA00:00.0 153414  605 Chico Corsa
38193.74 Steve GRIFFITHS (8 - Cat3)   Granite Bay, CA00:00.0 14196  617 Team Bicycles Plus/Sierra Neva
39 Unknown Rider     --- 
40198.86 Barton Andrew (9 - Cat3)   Rocklin, CA00:00.0 357549  648 
41201.42 Gregory GAMBETTA (27 - Cat2)   Sacramento, CA00:00.0 212916  615 Folsom Bike/VW/Raley's
42203.98 Erik SALANDER (10 - Cat3)   Belmont, CA00:00.0 195443  637 Peninsula Velo Racing
43206.54 Anthony Martinez (28 - Cat2)   Elk Grove, CA00:00.0 22744  672 
44209.10 Anthony ENG (11 - Cat3)   El Cerrito, CA00:00.0 245065  612 Team Oakland Cycling
45211.66 Kalani HINES (12 - Cat3)   Walnut Creek, CA00:00.0 219316  659 Metromint Cycling
46214.22 David NASCA (29 - Cat2)   Roseville, CA00:00.0 41192  626 Folsom Bike/VW/Raley's
47216.78 Allen JACKSON (13 - Cat3)   Sonora, CA00:00.0 260263  621 Kovarus/Wells Fargo Racing Tea
48219.34 Curt Mills (14 - Cat3)   Gold River, CA00:00.0 299412  654 -------
49221.90 David ALBRECHT   Chico, CA00:00.0 47091  601 Team Bicyces Plus/ZIPZ
50224.46 Steve WARD (15 - Cat3)   Folsom, CA00:00.0 286653  644 Team Bicycles Plus/Sierra Neva
51227.02 Chris PAYNE (16 - Cat3)   Reno, NV00:00.0 27493  632 Hub Coffee Roasters p/b Tahoe
52229.58 Shane CALKINS (17 - Cat3)   Gold River, CA00:00.0 254786  606 Team Bicycles Plus/Sierra Neva
53232.14 Jason WALKER (30 - Cat2)   Reno, NV00:00.0 201369  655 Team Specialized Racing Master
54234.70 Stephen MCCAW (31 - Cat2)   Sacramento, CA00:00.0 62322  652 Team Bicycles Plus/Sierra Neva
55237.26 Alvaro MOSQUERA (18 - Cat3)   Sacramento, CA00:00.0 236809  647 Team Bicycles Plus/Sierra Neva
56239.82 Jonathan EROPKIN   Fresno, CA00:00.0 197844  665 SAFEWAY/GA PRC Group/Bicycles
57242.38 Jack ARNEY (19 - Cat3)   Lincoln, CA00:00.0 301427  668 Folsom Bike/Mercedes Benz
58244.94 Henry RABAS (20 - Cat3)   West Sacramento, CA00:00.0 28975  657 Team Bicycles Plus/Sierra Neva
59247.50 Chris PAROD (21 - Cat3)   Mather, CA00:00.0 270992  631 Team Bicycles Plus/Sierra Neva
60250.06 Craig ROEMER (32 - Cat2)   Petaluma, CA00:00.0 80925  635 Team Specialized Racing Master
61252.62 Jens HILLEN (33 - Cat2)   Orinda, CA00:00.0 226525  620 Team Bicycles Plus/ZIPZ
62255.18 Scott PEIFER (34 - Cat2)   Granite Bay, CA00:00.0 265877  667 Folsom Bike/Mercedes Benz Elit
63257.74 Daniel Bryant   Carmichael, CA00:00.0 195929  671 Folsom Bike/MercedesBenz Elit
64260.30 Nick THEOBALD   Burlingame, CA00:00.0 35297  669 SAFEWAY/GA PRC Group/Bicycles
65262.86 James HERZMAN (22 - Cat3)   Truckee, CA00:00.0 207922  619 Hub Coffee Roasters p/b Tahoe
66265.42 Lawrence NOLAN   Fremont, CA00:00.0 26205  627 Team Specialized Racing Master
67267.98 Steve SHOWLER   Carmichael, CA00:00.0 32554  649 Morgan Stanley /Specialized
DNP Scotti FONSECA (Cat2)   Fair Oaks, CA00:00.0 204715  613 PrimeTime Cycling Team
DNP Joe OLIVERI (Cat2)   Grass Valley, CA00:00.0 26674  628 Team Bicycles Plus/Sierra Neva
DNP Jonathan LAINE (Cat2)   Truckee, CA00:00.0 256153  622 Team Bicycles Plus/Sierra Neva
DNP Erik CAMACHO (Cat2)   San Jose, CA00:00.0 303224  607 Leopard-Sapporo
DNP Rich TABUSO (Cat3)   Roseville, CA00:00.0 274439  663 Team Bicycles Plus/Sierra Neva
DNP Nabil SAMAAN (Cat2)   Fair Oaks, CA00:00.0 177518  638 Sustainable Cycling
DNP Gordon OLSON (Cat3)   Reno, NV00:00.0 105151  629 Hub Coffee Roasters p/b TCR
DNP Christopher BAKER   Sacramento, CA00:00.0 47424  673 Morgan Stanley Cycling Team
DNP Mark TRUJILLO (Cat2)   Reno00:00.0 212418  642 Hub coffee roasters p/b TCR
DNP Gerald ROBERTS (Cat2)   Sacramento, CA00:00.0 30073  634 Team Bicycles Plus/Sierra Neva
DNP Judd VAN SICKLE   Sacramento, CA00:00.0 127052  670 Folsom Bike/Mercedes Benz Elit
DNP Keith DEFIEBRE (Cat2)   Prunedale, CA00:00.0 9046  611 Cycles Fanatic
DNP Jeff MITCHELL (Cat3)   Folsom, CA00:00.0 101551  625 Team Bicycles Plus/Sierra Neva

Men - Cat1/2/3 - Master - 45-99

 Place Points NameCity, StateTime USAC #BibTeam
1107.48 John FAIRBANKS (1 - Cat2)   Sacramento, CA00:00.0 83306  710 Folsom Bike/VW/Raley's
2111.28 Michael OROURKE (2 - Cat2)   Auburn, CA00:00.0 204496  730 SAFEWAY/PureRED/Bicycles Plus
3115.08 Andre TENTHOREY (3 - Cat2)   Granite Bay, CA00:00.0 76561  751 LangeTwins Winery p/b Great Ba
4118.88 Gregg BETONTE (4 - Cat2)   Truckee, CA00:00.0 255414  746 GNARLUBE/LANDSHARK racing
5122.68 Nabil SAMAAN (5 - Cat2)   Fair Oaks, CA00:00.0 177518  737 Sustainable Cycling
6126.48 Karl WURZBACH (6 - Cat2)   Fairfield, CA00:00.0 260329  744 Davis Bike Club
7130.28 Keith DEFIEBRE (7 - Cat2)   Prunedale, CA00:00.0 9046  707 Cycles Fanatic
8134.08 Anthony Martinez (8 - Cat2)   Elk Grove, CA00:00.0 22744  749 
9137.88 Todd DAMBLY (1 - Cat3)   Folsom, CA00:00.0 212968  706 Folsom Bike/VW/Raley's
10141.68 Kashy GHAZZAGH (9 - Cat2)   Santa Rosa, CA00:00.0 295719  713 Fightin' Bobas
11145.48 Wilson GORRELL (2 - Cat3)   Folsom, CA00:00.0 254622  714 Folsom Bike/VW/Raley's
12149.28 R Todd MARSHALL (3 - Cat3)   Sacramento, CA00:00.0 43936  724 Davis Bike Club Race Team
13153.08 Ted TORIBIO (10 - Cat2)   Elk Grove00:00.0 88963  740 Folsom Bike/VW/Raley's
14156.88 David ALBRECHT   Chico, CA00:00.0 47091  700 Team Bicyces Plus/ZIPZ
15160.68 Chris KEMP (4 - Cat3)   West Sacramento, CA00:00.0 18867  719 Team City Sacramento
16164.48 Joe OLIVERI (11 - Cat2)   Grass Valley, CA00:00.0 26674  728 Team Bicycles Plus/Sierra Neva
17168.28 Chris Morris (5 - Cat3)   El Dorado Hills, CA00:00.0 316874  ??? Folsom Bike/VW/Raley's
18172.08 Kerry STOCKWELL   Folsom, CA00:00.0 34228  739 Team Bicycles Plus/Sierra Neve
19175.88 Steve MCCLELLAND (6 - Cat3)   Elk Grove00:00.0 360314  750 Rio Strada Racing
20179.68 Gordon ONG (7 - Cat3)   Carmichael, CA00:00.0 26762  729 Team City Sacramento
21183.48 John FRITZ (12 - Cat2)   Stockton, CA00:00.0 76287  752 Michael David Winery Cycling T
22187.28 Bill POWELL   El Dorado Hills, CA00:00.0 154026  756 
23191.08 Gus PLATIS (8 - Cat3)   W Sacramento, CA00:00.0 40616  731 Team City Sacramento
24194.88 John LENOACH (9 - Cat3)   Lafayette, CA00:00.0 335218  721 Cushman & Wakefield
25198.68 Lance BARTCZAK (10 - Cat3)   Cool, CA00:00.0 353518  702 BAHATI RACING
26202.48 Jonathan LAINE (13 - Cat2)   Truckee, CA00:00.0 256153  720 Team Bicycles Plus/Sierra Neva
27206.28 Morgan MAHANKE (11 - Cat3)   El Dorado Hills, CA00:00.0 226577  723 Team Bicycles Plus/Sierra Neva
28210.08 Anthony ENG (12 - Cat3)   El Cerrito, CA00:00.0 245065  709 Team Oakland Cycling
29213.88 Steve GRIFFITHS (13 - Cat3)   Granite Bay, CA00:00.0 14196  715 Team Bicycles Plus/Sierra Neva
30217.68 Scott HERRING (14 - Cat2)   Sausalito, CA00:00.0 236346  717 Team Specialized Racing Master
31221.48 James BLANKENSHIP (14 - Cat3)   Rescue, CA00:00.0 53651  747 Victory Velo Racing
32 UNKNOWN RIDER   00:00.0  ??? -------
33229.08 Frank Lunceford Sr (15 - Cat3)   El Dorado Hills, CA00:00.0 273343  722 Folsom Bike/VW/Raley's
34232.88 Mark TRUJILLO (15 - Cat2)   Reno00:00.0 212418  741 Hub coffee roasters p/b TCR
35236.68 Steve WARD (16 - Cat3)   Folsom, CA00:00.0 286653  743 Team Bicycles Plus/Sierra Neva
36240.48 Jc CLIFFORD (17 - Cat3)   Roseville, CA00:00.0 232661  703 Team Bicycles Plus/Sierra Neva
37244.28 Jack ARNEY (18 - Cat3)   Lincoln, CA00:00.0 301427  701 Folsom Bike/VW/Raley's
38248.08 Markham CONNOLLY (19 - Cat3)   Berkeley, CA00:00.0 208359  704 Touchstone Climbing
39251.88 John HANCOCK (16 - Cat2)   Sacramento, CA00:00.0 195844  716 Team Bicycles Plus/Sierra Neva
40255.68 Mark FIORI (20 - Cat3)   Folsom, CA00:00.0 112253  711 Folsom Bike/VW/Raley's
41259.48 Gerald ROBERTS (17 - Cat2)   Sacramento, CA00:00.0 30073  733 Team Bicycles Plus/Sierra Neva
42263.28 Brian HITCHMAN (18 - Cat2)   Folsom, CA00:00.0 48419  718 Team Bicycles Plus/Sierra Neva
43267.08 Eric ZEIGLER (21 - Cat3)   Auburn, CA00:00.0 60207  745 Victory Velo Racing
44270.88 Lance NEWEY (22 - Cat3)   Fair Oaks, CA00:00.0 202161  727 Team Bicycles Plus/Sierra Neva
45274.68 Craig ROEMER (19 - Cat2)   Petaluma, CA00:00.0 80925  735 Team Specialized Racing Master
46278.48 Stephen MCCAW (20 - Cat2)   Sacramento, CA00:00.0 62322  754 Team Bicycles Plus/Sierra Neva
47282.28 Bob DELP (23 - Cat3)   Folsom, CA00:00.0 9138  708 Folsom Bike/VW/Raley's
48286.08 Ron ROUSE (21 - Cat2)   Sacramento, CA00:00.0 166249  736 Rio Strada Racing
49289.88 Steve SHOWLER   Carmichael, CA00:00.0 32554  748 Morgan Stanley /Specialized
50293.68 Jess RAPHAEL (24 - Cat3)   Napa, CA00:00.0 221460  732 Folsom Bike / VW / Raley's
51297.48 Vincent GEE (22 - Cat2)   Sacramento, CA00:00.0 13001  712 Team Bicycles Plus/Sierra Neva
52301.28 Marty CUNNINGHAM (23 - Cat2)   Sacrament Ca00:00.0 8359  705 Sustainable Cycling
53 UNKNOWN RIDER   00:00.0  ??? -------
DNP Jeff MITCHELL (Cat3)   Folsom, CA00:00.0 101551  725 Team Bicycles Plus/Sierra Neva
DNP Chris MORRIS (Cat3)   El Dorado Hills, CA00:00.0 316874  726 Folsom Bike/VW/Raley's
DNP Andreas SCHULTEN (Cat3)   Cameron Park, CA00:00.0 248096  738 Stuzio
DNP Mark ROBERTSON (Cat3)   Oakland, CA00:00.0 237380  734 Cushman & Wakefield Racing
DNP Robert PASCO   Belmont, CA00:00.0 136970  755 SAFEWAY/GA PRC Group/Bicycles
DNP Jason BROWN (Cat2)   Lodi, CA00:00.0 53115  753 LangeTwins Winery p/b Great Ba
DNP Alex VELEZ (Cat3)   El Dorado Hills , CA00:00.0 63911  742 LeadOut Racing

Men - Cat1/2/3 - Master - 55-99

 Place Points NameCity, StateTime USAC #BibTeam
1162.23 Lawrence NOLAN   Fremont, CA00:00.0 26205  768 Team Specialized Racing Master
2193.39 Kevin WILLITTS (1 - Cat3)   S Lake Tahoe, CA00:00.0 192774  775 Team Bicycles Plus/Sierra Neva
3224.55 Bill Powell   El Dorado Hills, CA00:00.0 154026  777 -------
4255.71 Tracy MUEGGE (1 - Cat2)   Gold River, CA00:00.0 51637  766 Team Bicycles Plus/Sierra Neva
5286.87 Robert NAPIERALSKI (2 - Cat3)   Springville, CA00:00.0 271499  767 Sacramento Golden Wheelmen
6318.03 Erik SALANDER (3 - Cat3)   Belmont, CA00:00.0 195443  773 Peninsula Velo Racing
7349.19 Dave MONTGOMERY (4 - Cat3)   Olympic Valley, CA00:00.0 302935  765 Team Bicycles Plus/ Sierra Nev
8380.35 Bruce OSTERMANN   Worland, WY00:00.0 210078  769 Team Tumbleweed
9411.51 William OWENS (5 - Cat3)   Truckee, CA00:00.0 26982  770 Truckee Bike Team
10442.67 Peter TAYLOR (6 - Cat3)   Truckee, CA00:00.0 281821  774 Truckee Bicycle Team
11473.83 Mark PERRY (7 - Cat3)   Auburn, CA00:00.0 288400  771 Victory Velo Racing
12504.99 Rick REYNOLDS (8 - Cat3)   Truckee, CA00:00.0 287475  772 Truckee Bike Team

Men - Cat 5

 Place Points NameCity, StateTime USAC #BibTeam
1407.69 Martin SZWARC   Rancho Cordova, CA00:00.0 380700  541 Stuzio.com
2411.65 Wyatt MORIN   Roseville, CA00:00.0 266930  527 Victory Velo/Placer Foothill
3415.61 Richard REINHARDT   Sacramento, CA00:00.0 394292  533 
4419.57 Eric Voosen   Colfax Ca00:00.0 392658  547 -------
5423.53 Steven Williams   Chico00:00.0 386716  549 Chico Masters Cycling Team
6427.49 Jesse REEVES   Reno00:00.0 366463  532 none
7431.45 Kevin GORCHINSKI   Roseville, CA00:00.0 380099  520 Victory Velo Racing
8435.41 Robb THOMPSON   Folsom00:00.0 364927  544 Norcal Hub Racing
9439.37 Kenneth CURTIS   Sparks, NV00:00.0 302356  513 Reno Cycling Team
10443.33 Ben Porter   Folsom, CA00:00.0 394171  531 
11447.29 David WIELAND   Roseville00:00.0 397062  548 
12451.25 John SCOTT   Folsom, CA00:00.0 393871  535 Bicycle Planet
13455.21 Michael Helton   Reno Nevada00:00.0 391956  563 -------
14459.17 Benjamin CONNOLLY   Citrus Heights, CA00:00.0 392598  510 Team City Sacramento
15463.13 Nate HOE   Seattle, WA00:00.0 372578  524 Team City Sacramento
16467.09 Travis TANASSE   Folsom, CA00:00.0 378079  542 Folsom Bike/VW/Raley's
17471.05 Spencer Fields   Placerville, CA00:00.0 326378  996 
18475.01 Troy SOARES   Auburn, CA00:00.0 129658  539 Victory Velo
19478.97 David PALMERI   Live Oak, CA00:00.0 375602  530 Davis Bike Club - Race Team
20482.93 Joseph HOLT   Chico, CA00:00.0 389741  525 Chico Corsa
21486.89 Lee CRANE   Carlsbad00:00.0 384483  512 Swami's
22490.85 Garrison TRAUD   Gold River00:00.0 392480  546 
23494.81 Kass FEUERHELM   Pollock Pines, CA00:00.0 140414  518 
24498.77 George COFFEY   Sacramento00:00.0 393317  509 Team Revolutions
25502.73 Jared ELLISON   Folsom00:00.0 393171  516 Team Bicycles Plus/Sierra Neva
26506.69 Shayne MARSHALL   Auburn, CA00:00.0 392920  526 
27510.65 Patrick NORVILLE   Folsom, CA00:00.0 392707  529 Team Bicycles Plus/Sierra Neva
28514.61 Brian BAXTER   Rocklin, CA00:00.0 304373  501 Team Bicycles Plus/Sierra Neva
29518.57 Erik CHO   San Francisco00:00.0 331900  508 Scary Fast Racing
30522.53 Dan TILZEY   Reno, NV00:00.0 35606  545 Audi
31526.49 Michael HAHN   Folsom, CA00:00.0 338214  522 Team Bicycles Plus/Sierra Neva
32530.45 John BURTON   San Jose, CA00:00.0 365820  505 
33534.41 Thomas BRENNAN   Sacramento, CA00:00.0 377489  503 Rio Strada Racing
34538.37 Robert Bryan   Reno, NV00:00.0 239579  504 Reno Cycling Team p/b Natures
35542.33 Brandon SCOTT   Auburn Ca00:00.0 380744  534 
36546.29 John SIMKO   El Dorado Hills, CA00:00.0 393071  538 Folsom Bike/VW/Raley's/ Folsom
37550.25 Ryan Carr   Sparks, NV00:00.0 317714  506 
38554.21 Richard Sullivan   Rocklin, CA00:00.0 387196  575 -------
39558.17 Edwin GRANDEZ   El Dorado Hills, CA00:00.0 394522  521 Leadout
40562.13 Ken Starkey   Shingle Springs, CA00:00.0 422138  995 
41566.09 David Brandeberry   Folsom, CA00:00.0 4623  553 -------
42570.05 Christopher FREEMAN   Rancho Cordova, CA00:00.0 380040  519 LeadoutRacing
44577.97 Seth DOUGAN   Fair Oaks, CA00:00.0 394120  515 
45581.93 Ryan COUCH   Folsom, CA00:00.0 384536  511 
46585.89 Aaron SIEMSEN   Folsom00:00.0 377062  537 
47589.85 Christopher NAMBA   Sacramento00:00.0 381934  528 Team City
48593.81 Brian DEAN   Elverta Ca00:00.0 225923  514 Chico Corsa Cycling Club
DNP Ron SHEVOCK   Folsom, CA00:00.0 294396  536 Folsom Bike / Giant
DNP Calvin THIGPEN   Santa Rosa Ca00:00.0 393794  543 UC Davis Cycling
DNP Ron SHEVOCK   Folsom, CA00:00.0 294396  536 Folsom Bike / Giant
DNP Nicholas CASTER   Roseville, CA00:00.0 394639  507 Rio Strada Racing
DNP Alex ARMANDO   El Dorado Hills, CA00:00.0 367753  500 
DNP David EVANS   Reno, NV00:00.0 341778  517 Velo Reno p/b Tamarack Junctio

Men - Cat 5 - Master - 35-99

 Place Points NameCity, StateTime USAC #BibTeam
1383.10 Robb THOMPSON   Folsom00:00.0 364927  577 Norcal Hub Racing
2390.00 Eric VOOSEN   Colfax Ca00:00.0 392658  578 Victory Velo Racing
3396.90 Martin SZWARC   Rancho Cordova, CA00:00.0 380700  576 Stuzio.com
4403.80 Kenneth CURTIS   Sparks, NV00:00.0 302356  559 Reno Cycling Team
5410.70 Marco COSTANTINO   San Francisco00:00.0 391733  556 Cushman & Wakefield Racing
6417.60 Jared ELLISON   Folsom00:00.0 393171  560 Team Bicycles Plus/Sierra Neva
7424.50 Ron Shevock   Folsom, CA00:00.0 294396  536 -------
8431.40 David Brandeberry   Folsom, CA00:00.0 4623  502 -------
9438.30 Steven Williams   Chico00:00.0 386716  579 Chico Masters Cycling Team
10445.20 Aaron SCHMITZ   El Dorado Hills, CA00:00.0 383976  567 
11452.10 Michael Helton   Reno Nevada00:00.0 391956  523 -------
12459.00 Greg AMPEY   Elk Grove, CA00:00.0 399829  550 Team City
13465.90 Troy SOARES   Auburn, CA00:00.0 129658  571 Victory Velo
14472.80 John SCOTT   Folsom, CA00:00.0 393871  568 Bicycle Planet
15479.70 Patrick NORVILLE   Folsom, CA00:00.0 392707  566 Team Bicycles Plus/Sierra Neva
16486.60 Mike CORCORAN   Reno, NV00:00.0 7778  555 Reno Cycling Team
17493.50 Brian BAXTER   Rocklin, CA00:00.0 304373  552 Team Bicycles Plus/Sierra Neva
18500.40 Lee CRANE   Carlsbad00:00.0 384483  558 Swami's
19507.30 Benjamin WOODSIDE   El Dorado Hills, CA00:00.0 392654  580 Team Revolutions
20514.20 John BURTON   San Jose, CA00:00.0 365820  554 
21521.10 Matt Marks   Granite Bay, CA00:00.0 395910  581 SGW
22528.00 Len BAKER   El Dorado Hills00:00.0 393325  551 Team Revolutions
23534.90 Shayne MARSHALL   Auburn, CA00:00.0 392920  565 
24541.80 Ryan JANTZEN   El Dorado Hills, CA00:00.0 393249  564 Team Revolutions
25548.70 Albert FONG   Sacramento, CA00:00.0 367396  561 
26555.60 Tom HATFIELD   Sacramento, CA00:00.0 369030  562 Carmichael Cycle
27562.50 John SIMKO   El Dorado Hills, CA00:00.0 393071  570 Folsom Bike/VW/Raley's/ Folsom
28569.40 Ryan COUCH   Folsom, CA00:00.0 384536  557 
29576.30 Colby STOTT   Reno, NV00:00.0 392737  573 Reno Cycling Club/ Reno Cylcli
30583.20 Richard Sullivan   Rocklin, CA00:00.0 387196  540 -------
31590.10 Ryan SUAREZ   Rocklin00:00.0 380963  574 Victory Velo Auburn
DNP Ken STARKEY   Cameron Oark, CA00:00.0 396003  572 

Men - Cat 4

 Place Points NameCity, StateTime USAC #BibTeam
1286.40 Jake HENSLEY   El Dorado Hills Ca00:00.0 295422  422 Folsom Bike/VW/Raley's
2289.61 Marc MARINO   San Francisco, CA00:00.0 315958  466 Chica Sexy
3292.82 Brian BROWN   Sacramento, CA00:00.0 365111  404 Sacramento Golden Wheelmen
4296.03 Rich HUFFORD   Granite Bay, CA00:00.0 365212  425 Victory Velo Racing
5299.24 Andrew SHIMIZU   El Dorado Hills, CA00:00.0 366663  451 Data Driven Athlete Racing
6302.45 Neilson POWLESS   Roseville, CA00:00.0 230865  469 Folsom Bike/Mercedes Benz
7305.66 Cory HULA   Sacramento, CA00:00.0 334330  426 Team City Sacramento
8308.87 Andrew HEINEMANN   Soledad, CA00:00.0 356964  421 Don Chapin Monterey Bay Racing
9312.08 Trevor ELLSWORTH   Reno, NV00:00.0 348354  415 Bear Development Team
10315.29 Cesar PEREZ   Rancho Cordova Ca00:00.0 365929  443 Rio Strada Racing
11318.50 Eugene STEVENSON   Sacramento, CA00:00.0 288526  455 Team City Sacramento
12321.71 Jason PETTINATO   Antelope, CA00:00.0 204403  444 CTP Racing
13324.92 Robert TERRA   Lodi, CA00:00.0 269793  459 Team Bicycles Plus/Sierra Neva
14328.13 Clinton HAMILTON   Auburn, CA00:00.0 333284  420 Victory Velo Racing
15331.34 Tyler PLACE   El Dorado Hills, CA00:00.0 365099  445 Town Center Bike & Tri
16334.55 Jeff STEIN   Weimar, CA00:00.0 295435  465 Webcor/Alto Velo
17337.76 Matthew AXFORD   Carmichael, CA00:00.0 247223  401 Rio Strada Racing
18340.97 Greg FALES   Orangevale, CA00:00.0 275788  416 Team Bicycles Plus/Sierra Neva
19344.18 Richard NAGEL   Vacaville, CA00:00.0 345938  470 Grass Roots Racing pb Velo Wre
20347.39 Zachary ISAACS   Oakland, CA00:00.0 310212  427 Middlebury College Cycling Tea
21350.60 Paul LUDDEN   Sacramento, CA00:00.0 352040  432 NorCal Hub Racing
22353.81 Dustin DENTON   Stockton, CA00:00.0 365130  411 Michael David Winery/ Delta Ve
23357.02 Jason COVEY   San Jose 00:00.0 368412  407 Adventures Edge
24360.23 Nick ROBERTI   Cameron Park 00:00.0 366620  449 Rio Strada Racing
25363.44 Adam STANSBURY   Folsom, CA00:00.0 347404  454 Folsom Bike/VW/Raley's
26366.65 Michael TERRA   Sacramento, CA00:00.0 365904  458 Team Revolutions
27369.86 Nick SHOCKEY   Woodland, CA00:00.0 319784  452 Data Driven Athlete Racing
28373.07 Trevor JOHNSTON   Citrusheights, CA00:00.0 317078  429 Rio Strada Racing
29376.28 Marc TRUCANO   Vacaville, CA00:00.0 332694  467 Fuji-Oval Racing
30379.49 Tim BAIR   Roseville, CA00:00.0 257805  402 Norcal Hub Racing
31382.70 Darren ROJO   Folsom, CA00:00.0 366161  450 Team Bicycles Plus/Sierra Neva
32385.91 Derek NOVAES   West Sacramento, CA00:00.0 274484  437 Rio Strada Racing
33389.12 James DAWSON   Rocklin, CA00:00.0 365309  410 NorCal Hub Racing
34392.33 Mike GIUDICELLI   Auburn, CA00:00.0 330124  418 NorCal Hub Racing
35395.54 Justin MADISON   Vacaville, CA00:00.0 304658  472 Fuji-Oval Racing
36398.75 Craig MARTIN   Auburn, CA00:00.0 304421  433 Rio Strada Racing
37401.96 Troy STRICKLAND   San Ramon00:00.0 279824  457 Tieni Duro
38405.17 Gabriel MORFORD   San Francisco, CA00:00.0 333062  435 Gigaomaropistachios
39408.38 Gregg LEHMAN   Vacaville, CA00:00.0 250959  468 Fuji-Oval Racing
40411.59 Connor ELLISON   Folsom, CA00:00.0 329264  414 Team Bicycles Plus/Sierra Neva
41414.80 Scott KINGSTON   Sacramento, CA00:00.0 364783  430 Rio Strada Racing
42418.01 Chad RICHARDS   Antelope, CA00:00.0 305850  448 Team Bicycles Plus/Sierra Neva
43421.22 Scott HOOPER   Folsom, CA00:00.0 142947  424 Team Bicycles Plus/Sierra Neva
44424.43 Jarrod WYRICK   Granite Bay, CA00:00.0 109262  463 NorCal Hub Racing
45427.64 Adam ANDELIN   Elk Grove, CA00:00.0 128711  400 Team Bicycles Plus/Sierra Neva
46430.85 Tony BOODY   El Dorado Hills, CA00:00.0 326730  403 Team Revolutions
47434.06 Sef JAIMES   San Luis Obispo, CA00:00.0 332978  428 SLO NEXUS
48437.27 Manny CANSON   Sparks, NV00:00.0 334646  405 Reno Cycling Team p/b Nature's
49440.48 Scott DAVIS   Palo Alto, CA00:00.0 257793  409 QuadCycles
50443.69 Dave SMITH   Elk Grove, CA00:00.0 237254  453 Rio Strada Racing
51446.90 Matt FANFELLE   Sacramento, CA00:00.0 370596  417 
52450.11 Daniel POLLARD   Roseville, CA00:00.0 269166  446 Team Mad Cat
53 UNKNOWN RIDER   00:00.0  ??? -------
54456.53 Nicholas LOUIS   Auburn, CA00:00.0 315558  431 Chico Corsa Cycling Club
55459.74 Josef CARLSON   Eureka, CA00:00.0 348872  406 Adventures Edge
56462.95 Greg PRICE   West Sacramento, CA00:00.0 364779  447 Rio Strada Racing
57466.16 Joshua TIPTON   Sacramento00:00.0 374810  460 Team city Sacramento
58469.37 Michael O'DELL   Folsom, CA00:00.0 231563  438 Folsom Bike
59472.58 Zachary DOMAGALA   Roseville, CA00:00.0 378257  413 NorCal Hub Racing
60475.79 Lonny MORGAN   Carmichael, CA00:00.0 303146  436 Team Revolutions
61479.00 Craig DOLLEY   El Dorado Hills, CA00:00.0 158073  412 Team Bicycles Plus/Sierra Neva
62482.21 Todd OSTERBERG   Roseville, CA00:00.0 299874  441 NorCal Hub Racing
63485.42 Robert GOSS   Folsom, CA00:00.0 289041  419 Team Bicycles Plus/Sierra Neva
64488.63 Sean ODOM   Carmichael, CA00:00.0 223061  440 EAST SAC BIKES
65491.84 Evan CURRIE   El Dorado Hills, CA00:00.0 316094  408 Folsom bike
66495.05 Ron STOFAN   Folsom00:00.0 368443  456 Team Bicycles Plus/Sierra Neva
67498.26 Saul LOYOLA   Hayward, CA00:00.0 379786  464 
68501.47 Aaron LOMBARDI   Elk Grove, CA00:00.0 258261  471 NorCal Hub Racing
69504.68 Jasper HODGSON   Folsom, CA00:00.0 337878  423 Team Bicycles Plus/Sierra Neva
70507.89 Stephen MASON   Folsom, CA00:00.0 257941  434 Los Gatos Bicycle Racing Club
DNP Anthony ODELL   Orangevale, CA00:00.0 287267  439 
DNP Jeffrey WEAVER   Sacramento, CA00:00.0 290926  461 Davis Bike Club Race Team
DNP Schuyler WILCOX   Sacramento, CA00:00.0 335466  462 Rio Strada Racing
DNP Brian PANTIGA   Folsom, CA00:00.0 61633  442 Bicycle Planet

Men - Cat 3

 Place Points NameCity, StateTime USAC #BibTeam
1143.25 Justin TRAUD   Gold River, CA00:00.0 368059  335 Rio Strada
2147.17 Andrew BERG   Sacramento, CA00:00.0 351724  302 Sacramento Golden Wheelmen
3151.09 Tyler JANKE   Folsom, CA00:00.0 57315  316 Data Driven Athlete Racing
4155.01 Christopher ELBO   Oakland, CA00:00.0 287728  310 SquadraSF
5158.93 Ryan WEI   Diamond Bar, CA00:00.0 328624  348 OTR Racing
6162.85 Kenny LANE   Citrus Heights, CA00:00.0 274485  343 Team Bicycles Plus/Sierra Neva
7166.77 Ben COTA   San Jose, CA00:00.0 7881  307 Leopard-Sapporo Team
8170.69 Aaron PATTERSON   San Jose, CA00:00.0 334718  327 Leopard-Sapporo Team
9174.61 Samuel BOLSTER   Camino, CA00:00.0 258704  340 Velo Reno P/B Tamarack Junctio
10178.53 Robert LANDER   Sacramento, CA00:00.0 356530  318 Team City Sacramento
11182.45 Oliver WEISS   Roseville, CA00:00.0 79603  337 Rio Strada Racing
12186.37 Ryan OAKES   Chico, CA00:00.0 258824  323 Chico Corsa Cycling Club
13190.29 Ronald JOHNSON   Sacramento, CA00:00.0 41718  317 Rio Strada
14194.21 Erik CAMACHO   San Jose, CA00:00.0 303224  305 Leopard-Sapporo
15198.13 Gabe MULTER   Santa Cruz, CA00:00.0 331142  342 Ritte Elite U23 Development Te
16202.05 Yutch Liam COWHIE   Fair Oaks, CA00:00.0 261718  308 Team Bicycles Plus/Sierra Neva
17205.97 Jason MARTEL DYE   Sacramento, CA00:00.0 310948  319 Davis Bike Club Race Team
18209.89 John COLLINS   Folsom, CA00:00.0 231774  306 Folsom Bike/VW/Raley's
19213.81 Ben PALMER   Folsom, CA00:00.0 328784  351 University of California-Davis
20217.73 Kevin WILLITTS   S Lake Tahoe, CA00:00.0 192774  341 Team Bicycles Plus/Sierra Neva
21221.65 Kalani HINES   Walnut Creek, CA00:00.0 219316  349 Metromint Cycling
22225.57 Scott WATERS   Reno, NV00:00.0 298411  336 Velo Reno p/b Tamarack Junctio
23229.49 Chris CAIN   Monterey, CA00:00.0 339008  304 Monterey Bay Racing Team
24233.41 Ryan ODELL   Sacramento, CA00:00.0 288200  324 Davis Bike Club Race Team
25237.33 Ryan MALM   Sacramento, CA00:00.0 296229  344 Davis Bike Club Race Team
26241.25 Anthony RODRIGUEZ   Davis, CA00:00.0 276148  330 Davis Bike Club
27245.17 Thomas THEISEN   Sacramento, CA00:00.0 229836  345 Big Ring Flyers
28249.09 Curt MILLS   Gold River, CA00:00.0 299412  320 Data Driven Athlete Racing
29253.01 Damian GONZALEZ   Stockton, CA00:00.0 178252  350 Michael David Winery Cycling T
30256.93 Allen JACKSON   Sonora, CA00:00.0 260263  315 Kovarus/Wells Fargo Racing Tea
31260.85 Henry RABAS   West Sacramento, CA00:00.0 28975  347 Team Bicycles Plus/Sierra Neva
32264.77 Dennis BAKER   Sacramento, CA00:00.0 255279  352 Sacramento Golden Wheelmen
33268.69 Ryan ALVEY   Sacramento, CA00:00.0 274522  301 Davis Bike Club Race Team
34272.61 Casey FALLON   Sacramento, CA00:00.0 331532  311 Data Driven Athlete
35276.53 Rocky FLETCHER   Sacramento , CA00:00.0 324460  346 Rio Strada Racing
36280.45 Timothy ZSOKA   Folsom, CA00:00.0 239889  338 Team Bicycles Plus/Sierra Neva
37284.37 Rich TABUSO   Roseville, CA00:00.0 274439  332 Team Bicycles Plus/Sierra Neva
38288.29 Max FOORMAN   Folsom, CA00:00.0 152445  312 Team Bicycles Plus/Sierra Neva
39292.21 Alex NEWCOMB   Sacramento, CA00:00.0 353226  322 Team City
40296.13 Justin HALL   El Dorado Hills, CA00:00.0 81780  314 Team Bicycles Plus/Sierra Neva
41300.05 Ken TODD   Folsom, CA00:00.0 174881  334 Team Bicycles Plus/Sierra Neva
42303.97 Chris PAYNE   Reno, NV00:00.0 27493  328 Hub Coffee Roasters p/b Tahoe
43307.89 Eric BRICKLER   Folsom, CA00:00.0 284883  303 Data Driven Athlete Racing
44311.81 Steve OFFERMAN   Sacramento, CA00:00.0 81992  325 Team Bicycles Plus/Sierra Neva
45315.73 Jeff MITCHELL   Folsom, CA00:00.0 101551  339 Team Bicycles Plus/Sierra Neva
46319.65 Bob DELP   Folsom, CA00:00.0 9138  309 Folsom Bike/VW/Raley's
DNP Nabil SAMAAN   Fair Oaks, CA00:00.0 177518  331 Sustainable Cycling
DNP Tom THEISEN   Sacramento, CA00:00.0 229836  333 
DNP Gordon OLSON   Reno, NV00:00.0 105151  326 Hub Coffee Roasters p/b TCR
DNP Robert NAPIERALSKI   Springville, CA00:00.0 271499  321 Sacramento Golden Wheelmen
DNP Mark ROBERTSON   Oakland, CA00:00.0 237380  329 Cushman & Wakefield Racing
DNP Wilson GORRELL   Folsom, CA00:00.0 254622  313 Folsom Bike/VW/Raley's
DNP Dean ALLEGER   Sacramento, CA00:00.0 196784  300 Team Bicycles Plus/Sierra Neva

Men - Pro/Cat 1/2

 Place Points NameCity, StateTime USAC #BibTeam
183.19 Willie MYERS (1 - Cat1)   Carmichael, CA00:00.0 306325  22 Fremont Bank Cycling Team
285.59 Joshua CARLING (2 - Cat1)   Rancho Cordova, CA00:00.0 234584  Team Bicycles Plus/Sierra Neva
387.99 Chris STASTNY (3 - Cat1)   Vacaville, CA00:00.0 249743  32 Hagens Berman
490.39 Todd STONE (1 - Cat2)   Carmichael, CA00:00.0 249318  34 Team Bicycles Plus/Sierra Neva
592.79 Matt CHATLAONG (4 - Cat1)   Roseville, CA00:00.0 304797  Folsom Bike/VW/Raleys
695.19 John NOVIKOFF (2 - Cat2)   Rocklin, CA00:00.0 239990  53 Leadoutracing.com (CA)
797.59 Matt MIKUL (3 - Cat2)   Sunnyvale, CA00:00.0 271933  21 Recycled Cycles Racing
899.99 Robert SCHEFFLER (5 - Cat1)   Alamo, CA00:00.0 239048  62 Fremont Bank Cycling Team
9102.39 Torey PHILIPP (6 - Cat1)   El Dorado Hills, CA00:00.0 263055  25 California Giant/Specialized
10104.79 David ALBRECHT (7 - Cat1)   Chico, CA00:00.0 47091  Team Bicyces Plus/ZIPZ
11107.19 Christopher BAKER (8 - Cat1)   Sacramento, CA00:00.0 47424  46 Morgan Stanley Cycling Team
12109.59 Benjamin SWEDBERG (9 - Cat1)   Kent, WA00:00.0 200484  36 California Giant/Specialized
13111.99 Brandon BORTH (10 - Cat1)   Lockeford, CA00:00.0 235761  Team Bicycles Plus/Sierra Neva
14114.39 Mark DUROY (4 - Cat2)   Modesto, CA00:00.0 52805  52 Kind Human Sports
15116.79 Christopher DUDLEY (11 - Cat1)   Reno, NV00:00.0 285988  57 TEAM CLIF BAR Cycling
16119.19 Aj SNOVEL (5 - Cat2)   Sacramento, CA00:00.0 272559  29 Folsom Bike/VW/Raley's
17121.59 Matthew VALENCIA (6 - Cat2)   Los Altos, CA00:00.0 255576  54 Team Specialized Racing Junior
18123.99 Trevor GOMES (7 - Cat2)   Lodi, CA00:00.0 321964  15 Team Bicycles Plus/Sierra Neva
19126.39 Jeromy COTTELL (8 - Cat2)   Redwood City, CA00:00.0 273912  Team Specialized Racing Master
20128.79 Neil BARTLEY (9 - Cat2)   San Jose, CA00:00.0 209268  Team Bicycles Plus/ZIPZ
21131.19 Jeff WATSON (10 - Cat2)   Elk Grove, CA00:00.0 293136  38 Team Bicycles Plus/Sierra Neva
22133.59 Josh RENNIE (12 - Cat1)   Reno, NV00:00.0 251736  58 Red Peloton
23135.99 Kenny STRICKLAND (11 - Cat2)   San Ramon, CA00:00.0 270965  35 Metromint
24138.39 Michael JASINSKI (13 - Cat1)   Rocklin, CA00:00.0 269476  19 Team Clif Bar Cycling
25140.79 David GRUNDMAN (14 - Cat1)   Davis, CA00:00.0 240540  16 Team Bicycles Plus/Sierra Neva
26143.19 Scot Ferguson (12 - Cat2)   Reno, NV00:00.0 195008  50 TEAM CLIF BAR Cycling
27145.59 Ben ALBRACHT (13 - Cat2)   Monterey, CA00:00.0 210637  Team Bicycles Plus/ZIPZ
28147.99 Maxim Jenkins (1 - Pro)   Citrus Heights, CA00:00.0 195652  61 UCI Kenda 5 Hour
29150.39 Kesler JARED (15 - Cat1)   Auburn, CA00:00.0 277317  56 Folsom Bike/VW/Raley's
30152.79 Jeff DILLON (14 - Cat2)   Folsom, CA00:00.0 9524  11 LeadOut Racing
31155.19 Joseph STARON (15 - Cat2)   Sacramento, CA00:00.0 132859  55 LangeTwins Winery p/b Great Ba
32157.59 Nathanael CHRISTENSEN (16 - Cat1)   Clements, CA00:00.0 239919  Team Bicycles Plus/Sierra Neva
33159.99 Brian ZIMNY (16 - Cat2)   Sacramento, CA00:00.0 61117  41 Folsom Bike/VW/Raley's
34162.39 Michael PAINTER (17 - Cat2)   Chico Ca00:00.0 289184  24 Chico Corsa Cycling Club
35164.79 Cody TAPLEY (18 - Cat2)   Citrus Heights, CA00:00.0 234610  37 Echelon Velo/ VuMedi p/b Lomba
36167.19 Kerry STOCKWELL (17 - Cat1)   Folsom, CA00:00.0 34228  33 Team Bicycles Plus/Sierra Neve
37169.59 Michael SAYERS (18 - Cat1)   Fair Oaks, CA00:00.0 54591  28 Specialized masters
38171.99 Robert PASCO (19 - Cat1)   Belmont, CA00:00.0 136970  65 SAFEWAY/GA PRC Group/Bicycles
39174.39 Brian CHOI (19 - Cat2)   Folsom, CA00:00.0 52849  Stuzio.com
40176.79 Paul MORRIS (20 - Cat1)   Carson City, NV00:00.0 294725  49 TEAM CLIF BAR Cycling
41179.19 Jan WEISSENBERGER (21 - Cat1)   San Francisco, CA00:00.0 186678  39 Team Bicycles Plus/ZIPZ
42181.59 Jason BROWN (20 - Cat2)   Lodi, CA00:00.0 53115  42 LangeTwins Winery p/b Great Ba
43183.99 Chris ESPY (21 - Cat2)   Sacramento, CA00:00.0 61649  44 Morgan Stanley /Specialized
44186.39 Corey DUREN (22 - Cat2)   Chico, CA00:00.0 320490  47 Chico Corsa Cycling Club
45188.79 Steve THOMSEN (23 - Cat2)   Reno, NV00:00.0 245436  60 LangeTwins Winery p/b Great Ba
46191.19 Cody KAISER (22 - Cat1)   El Dorado Hills, CA00:00.0 202564  20 California Giant/Specialized
47193.59 Russell WHITE (24 - Cat2)   Lafayette, CA00:00.0 236024  40 VuMedi p/b Lombardi Sports
48195.99 Nick THEOBALD (23 - Cat1)   Burlingame, CA00:00.0 35297  64 SAFEWAY/GA PRC Group/Bicycles
49198.39 Mark DETERLINE (25 - Cat2)   Salt Lake City, UT00:00.0 43613  10 Fremont Bank Cycling Team
50200.79 Jason SNOVEL (26 - Cat2)   Sacramento, CA00:00.0 268577  30 Folsom Bike/VW/Raley's
51203.19 Jonathan EROPKIN (24 - Cat1)   Fresno, CA00:00.0 197844  66 SAFEWAY/GA PRC Group/Bicycles
52205.59 Lawrence NOLAN (25 - Cat1)   Fremont, CA00:00.0 26205  23 Team Specialized Racing Master
53207.99 Daniel BRYANT (26 - Cat1)   Carmichael, CA00:00.0 195929  59 Folsom Bike/Mercedes Benz
54210.39 Max POLIN (27 - Cat1)   Davis, CA00:00.0 228684  26 Sprintin' Kitten Coaching
55212.79 Jason WALKER (27 - Cat2)   Reno, NV00:00.0 201369  43 Team Specialized Racing Master
56215.19 Rodney SPRADLIN (28 - Cat2)   El Dorado Hills, CA00:00.0 122266  31 Team Bicycles Plus/Sierra Neva
57217.59 Matt TUFTS (29 - Cat2)   Placerville, CA00:00.0 240212  51 Leadoutracing.com (CA)
58219.99 Michael HERNANDEZ (28 - Cat1)   Oakland, CA00:00.0 136641  17 Leadoutracing.com
DNP Jens HILLEN (Cat2)   Orinda, CA00:00.0 226525  18 Team Bicycles Plus/ZIPZ
DNP Scott PEIFER (Cat2)   Granite Bay, CA00:00.0 265877  63 Folsom Bike/Mercedes Benz Elit
DNP Vincent GEE (Cat2)   Sacramento, CA00:00.0 13001  14 Team Bicycles Plus/Sierra Neva
DNP Korina HUIZAR (Cat2)   Roseville, CA00:00.0 332152  45 Metromint Cycling
DNP Adam ROSS (Cat2)   Folsom, CA00:00.0 167796  27 Fremont Bank Cycling Team
DNP Nicholas OLIVER (Cat2)   El Dorado Hills, CA00:00.0 271541  68 Fremont Bank Cycling Team
DNP Dave KAUSE (Cat2)   Sacramento, CA00:00.0 175157  67 
DNP Jeffrey GALLAND (Cat2)   Paradise, CA00:00.0 127804  12 Team Bicycles Plus/ZIPZ
DNP Gregory GAMBETTA (Cat2)   Sacramento, CA00:00.0 212916  13 Folsom Bike/VW/Raley's
DNP Scott MCKINLEY   Mill Valley, CA00:00.0 46815  48 

Men - Junior - 10-18

 Place Points NameCity, StateTime USAC #BibTeam
1302.44 Robert TERRA   Lodi, CA00:00.0 269793  175 Team Bicycles Plus/Sierra Neva
2319.36 Jonathan CHRISTENSEN   Clements, CA00:00.0 250315  182 Team Bicycles Plus/Sierra Neva
3336.28 Samuel HILL   Woodland, CA00:00.0 318306  181 Davis Bike Club Race Team Juni
4353.20 Connor ELLISON   Folsom, CA00:00.0 329264  170 Team Bicycles Plus/Sierra Neva
5370.12 Jasper HODGSON   Folsom, CA00:00.0 337878  172 Team Bicycles Plus/Sierra Neva
6387.04 Ryan JOY   Granite Bay, CA00:00.0 335440  176 Team Bicycles Plus/Sierra Neva
7403.96 Matthew KEATING   Keyport, NJ00:00.0 76645  173 
8 Won YOUNG MOON   00:00.0  177 
9437.80 Michael HAHN   Folsom, CA00:00.0 338214  171 Team Bicycles Plus/Sierra Neva
10454.72 Matthew KESSELRING   El Dorado Hills, CA00:00.0 393903  174 Cycling development
12488.56 Lane STURGEON   Reno, NV00:00.0 377902  196 
21600.00 Hans NIEMANN   Orinda, CA00:00.0 379284  192 
22600.00 Connor NEARN   Fresno , CA00:00.0 389819  190 SBRacing
23600.00 Chase NEARN   Clovis, CA00:00.0 389818  191 SBRacing
24600.00 Henry CHADWICK   Sacramento, CA00:00.0 396051  194 
25600.00 Colby TELL   Sacramento, CA00:00.0 396014  193 
26 Owen NAWRATH   00:00.0  195 
27 Cealia CROWLEY   00:00.0  178 
DNP Kyle FIORI   Folsom, CA00:00.0 303705  180 Davis Bike Club Jr Race Team

Women - Cat1/2/3

 Place Points NameCity, StateTime USAC #BibTeam
1122.83 Amy CHANDOS (1 - Cat2)   Flagstaff, AZ00:00.0 256409  124 Stevens Bikes p/b Pactimo
2129.73 Marley SMITH   Roseville, CA00:00.0 276961  114 Folsom Bike/Cervello
3136.63 Sunshine TOWNSEND (2 - Cat2)   Davis, CA00:00.0 327398  117 Folsom bike/Cervelo
4143.53 Marissa AXELL   El Cerrito, CA00:00.0 269569  100 Team Fremont Bank
5150.43 Jennie PHILLIPS (3 - Cat2)   Danville, CA00:00.0 203722  110 Kovarus / Wells Fargo Racing T
6157.33 Korina HUIZAR (4 - Cat2)   Roseville, CA00:00.0 332152  104 Metromint Cycling
7164.23 Erica GREIF (5 - Cat2)   Reno, NV00:00.0 367331  103 UNR
8171.13 Colene CROWLEY (1 - Cat3)   Carmichael, CA00:00.0 129693  120 Rio Strada Racing
9178.03 Page ROBERTSON   Oakland, CA00:00.0 291028  111 Team TIBCO II
10184.93 Katie STONEBRAKER (2 - Cat3)   Sacramento, CA00:00.0 226927  116 Rio Strada Racing
11191.83 Heidi LITTENBERG (6 - Cat2)   Reno, NV00:00.0 286191  107 Rio Strada Racing
12198.73 Brooke Roberts (3 - Cat3)   Richmond, CA00:00.0 220185  101 Metromint Cycling
13205.63 Heather ROSS   Felton, CA00:00.0 239612  112 Fremont Bank Cycling Team
14212.53 Cristina HUGHES   Zephyr Cove, NV00:00.0 325664  125 
15219.43 Nicole SLATON (4 - Cat3)   Davis, CA00:00.0 287914  121 Metromint Cycling
16226.33 Josie MORGAN (7 - Cat2)   Oakland, CA00:00.0 242553  109 Fremont Bank Cycling Team
17233.23 Aliya TRAFICANTE (5 - Cat3)   Chico, CA00:00.0 310825  118 Chico Corsa
18240.13 Vanessa CAIRNS (6 - Cat3)   San Jose, CA00:00.0 282467  102 Team TIBCO II
19247.03 Karen HUTCHINS (7 - Cat3)   Folsom, CA00:00.0 308852  105 Leadoutracing.com
20253.93 Carola BERGER (8 - Cat2)   Redwood City, CA00:00.0 184962  119 
21260.83 Kira PROKOPAKIS (9 - Cat2)   Santa Clara, CA00:00.0 283149  123 Los Gatos
22267.73 Claire MORGAN (10 - Cat2)   Gold River, CA00:00.0 335402  108 Folsom Bike/Cervelo
23274.63 Asa SALAS (8 - Cat3)   Folsom, CA00:00.0 115370  113 LeadoutRacing.com
24281.53 Holly ROBERTS (11 - Cat2)   Sunnyvale, CA00:00.0 203177  122 SJBC
DNP Danielle SPIRES (Cat2)   Oakland, CA00:00.0 303311  115 Pacific Crush
DNP Sherri LEHMAN (Cat3)   Gold River, CA00:00.0 274098  106 Rio Strada Racing

Women - Cat 4

 Place Points NameCity, StateTime USAC #BibTeam
1420.48 Madeline FINCH   Sacramento, CA00:00.0 127715  479 Rio Strada Racing
2434.61 Joanne Liu   Granite Bay00:00.0 393189  483 Leopard-Sapporo Team
3448.74 Gale DE ROSA   Gold River, CA00:00.0 332412  477 Metromint Cycling
4462.87 Remy HITT   Emeryville, CA00:00.0 393503  481 
5477.00 Sara HEUSTON   Carmichael, CA00:00.0 391988  489 Rio Strada Racing
6491.13 Jamie WHITMORE   Mount Aukum, CA00:00.0 169611  487 
7505.26 Lisa TRUJILLO   Reno Nv00:00.0 381697  486 Hub Coffee Roasters p/b Tahoe
8519.39 Heather DUFFY   Sacramento, CA00:00.0 393169  478 Delta Velo
9533.52 Rexanne HUGHES   Sacramento, CA00:00.0 365247  482 Rio Strada Racing
10547.65 Jennifer BAKER   Sacramento, CA00:00.0 337670  476 Rio Strada Racing
11561.78 Karen MUNOZ   Cameronpark, CA00:00.0 315886  484 Team Revolutions
12575.91 Angie PLATIS   West Sacramento, CA00:00.0 364812  485 Rio Strada Racing
13 Celina ORNELAS   00:00.0  488 
DNP Stephanie HINES   Berkeley, CA00:00.0 331318  480 Metromint

Report missing or incorrect license numbers

Volkswagen
USACDFCUORESpySierra NevadaOSMOShimanoBonk Breaker
UCI USA Cycling is the official governing body for all disciplines of competitive cycling in the United States. The 501c3, membership-based organization aims both to achieve sustained success in international cycling competition and to grow competitive cycling in America while delivering an exceptional customer experience.
View Children's Online Privacy Protection Policy
US Olympic Committee